KSCH/SCH METAR and TAF weather

Enter ICAO airport designator
Station Type Date Time Source
KSCH METAR 2022/12/10 00:55 UTC NOAA

KSCH 100055Z 01004KT 15SM CLR M03/M10 A3039


Station Type Date Time Source
KSCH Decoded METAR 2022/12/10 00:55 UTC NOAA

Schenectady Airport, NY, United States (KSCH) 42-51N 073-56W
Dec 09, 2022 - 07:55 PM EST / 2022.12.10 0055 UTC
Wind: from the N (010 degrees) at 5 MPH (4 KT):0
Visibility: 15 mile(s):0
Sky conditions: clear
Temperature: 26 F (-3 C)
Windchill: 19 F (-7 C):1
Dew Point: 14 F (-10 C)
Relative Humidity: 58%
Pressure (altimeter): 30.39 in. Hg (1029 hPa)
ob: KSCH 100055Z 01004KT 15SM CLR M03/M10 A3039
cycle: 1

Station Type Date Time Source
KSCH TAF UTC NOAA

Error!

Example: see airport list